METAR

TAF

 




Rio de Janeiro / Galeão - Antonio Carlos Jobim, RJ - SBGL


21 de Outubro de 2014 às 06:00 (UTC)


Tempo:

Céu nublado

Temperatura:

21ºC

Umidade Relativa:

88%

Localização:
Ajuste do Altímetro:

1016 hPa

Visibilidade Horizontal Predominante:

5000 m

Direção e Velocidade do Vento:

240° 12,96 Km/h


Observação Meteorológica:

METAR SBGL 210600Z 24007KT 5000 BR SCT007 BKN010 OVC025 21/19 Q1016=